Time;durP1;ratioP1;P1;durP2;ratioP2;P2;SDS_P1;SDS_P2;PMS_P1;PMS_P2;Temp;Humidity;BMP_temperature;BMP_pressure;BME280_temperature;BME280_humidity;BME280_pressure;Samples;Min_cycle;Max_cycle;Signal;HPM_P1;HPM_P2
2021/12/19 00:04:30;;;;;;;;;;;7.30;99.90;;;;;;5093390;28;19924;-75
2021/12/19 00:09:15;;;;;;;;;;;7.20;99.90;;;;;;5123863;28;19934;-74
2021/12/19 00:11:41;;;;;;;;;;;7.20;99.90;;;;;;5066258;28;19932;-75
2021/12/19 00:14:07;;;;;;;;;;;7.20;99.90;;;;;;5092151;28;20380;-76
2021/12/19 00:16:32;;;;;;;;;;;7.20;99.90;;;;;;5084306;28;19924;-75
2021/12/19 00:18:58;;;;;;;;;;;7.20;99.90;;;;;;5080990;28;20528;-74
2021/12/19 00:21:25;;;;;;;;;;;7.20;99.90;;;;;;5114088;28;19939;-81
2021/12/19 00:23:51;;;;;;;;;;;7.30;99.90;;;;;;5102664;28;19962;-75
2021/12/19 00:26:17;;;;;;;;;;;7.30;99.90;;;;;;5102555;28;20339;-75
2021/12/19 00:28:44;;;;;;;;;;;7.20;99.90;;;;;;5099574;28;19991;-75
2021/12/19 00:31:10;;;;;;;;;;;7.30;99.90;;;;;;5108856;28;20031;-78
2021/12/19 00:33:37;;;;;;;;;;;7.30;99.90;;;;;;5088590;28;19930;-74
2021/12/19 00:36:03;;;;;;;;;;;7.30;99.90;;;;;;5109170;28;19930;-74
2021/12/19 00:38:28;;;;;;;;;;;7.30;99.90;;;;;;5085968;28;19928;-75
2021/12/19 00:40:54;;;;;;;;;;;7.30;99.90;;;;;;5074857;28;19950;-75
2021/12/19 00:46:22;;;;;;;;;;;7.30;99.90;;;;;;5017523;28;20353;-75
2021/12/19 00:48:50;;;;;;;;;;;7.30;99.90;;;;;;5067066;28;19931;-77
2021/12/19 00:51:17;;;;;;;;;;;7.30;99.90;;;;;;5071924;28;19924;-75
2021/12/19 00:53:43;;;;;;;;;;;7.30;99.90;;;;;;5080560;28;19924;-75
2021/12/19 00:56:09;;;;;;;;;;;7.30;99.90;;;;;;5079784;28;19929;-75
2021/12/19 00:58:35;;;;;;;;;;;7.30;99.90;;;;;;5074688;28;19932;-83
2021/12/19 01:01:02;;;;;;;;;;;7.30;99.90;;;;;;5088866;28;19982;-75
2021/12/19 01:03:27;;;;;;;;;;;7.30;99.90;;;;;;5071151;28;19950;-79
2021/12/19 01:05:53;;;;;;;;;;;7.30;99.90;;;;;;5109173;28;19924;-75
2021/12/19 01:08:19;;;;;;;;;;;7.30;99.90;;;;;;5085112;28;19935;-75
2021/12/19 01:10:46;;;;;;;;;;;7.30;99.90;;;;;;5080892;28;19932;-74
2021/12/19 01:13:13;;;;;;;;;;;7.40;99.90;;;;;;5088050;28;19928;-74
2021/12/19 01:15:38;;;;;;;;;;;7.30;99.90;;;;;;5088472;28;19967;-80
2021/12/19 01:18:04;;;;;;;;;;;7.30;99.90;;;;;;5056200;28;19986;-76
2021/12/19 01:20:30;;;;;;;;;;;7.30;99.90;;;;;;5089367;28;19931;-76
2021/12/19 01:22:56;;;;;;;;;;;7.30;99.90;;;;;;5069425;28;20579;-75
2021/12/19 01:25:21;;;;;;;;;;;7.30;99.90;;;;;;5078846;28;19935;-76
2021/12/19 01:27:48;;;;;;;;;;;7.20;99.90;;;;;;5088944;28;20335;-76
2021/12/19 01:30:14;;;;;;;;;;;7.10;99.90;;;;;;5089876;28;19946;-75
2021/12/19 01:32:42;;;;;;;;;;;7.10;99.90;;;;;;5085997;28;19924;-84
2021/12/19 01:35:10;;;;;;;;;;;7.10;99.90;;;;;;5091010;28;19928;-74
2021/12/19 01:37:35;;;;;;;;;;;7.10;99.90;;;;;;5090639;28;20071;-75
2021/12/19 01:40:02;;;;;;;;;;;7.10;99.90;;;;;;5056623;28;19933;-74
2021/12/19 01:42:34;;;;;;;;;;;7.20;99.90;;;;;;5078584;28;20374;-75
2021/12/19 01:45:00;;;;;;;;;;;7.20;99.90;;;;;;5084490;28;20479;-76
2021/12/19 01:47:26;;;;;;;;;;;7.20;99.90;;;;;;5088399;28;19979;-75
2021/12/19 01:49:51;;;;;;;;;;;7.20;99.90;;;;;;5083739;28;20014;-75
2021/12/19 01:52:18;;;;;;;;;;;7.20;99.90;;;;;;5112258;28;19923;-75
2021/12/19 01:54:44;;;;;;;;;;;7.20;99.90;;;;;;5086608;28;19951;-77
2021/12/19 01:57:10;;;;;;;;;;;7.20;99.90;;;;;;5120474;27;19928;-75
2021/12/19 01:59:35;;;;;;;;;;;7.20;99.90;;;;;;5077756;28;19924;-74
2021/12/19 02:02:01;;;;;;;;;;;7.10;99.90;;;;;;5081663;28;19935;-75
2021/12/19 02:04:30;;;;;;;;;;;7.10;99.90;;;;;;5112221;28;20410;-75
2021/12/19 02:06:56;;;;;;;;;;;7.10;99.90;;;;;;5063059;28;20345;-75
2021/12/19 02:09:22;;;;;;;;;;;7.10;99.90;;;;;;5104063;28;20148;-76
2021/12/19 02:11:47;;;;;;;;;;;7.10;99.90;;;;;;5105221;28;19932;-74
2021/12/19 02:14:13;;;;;;;;;;;7.10;99.90;;;;;;5113278;27;19935;-79
2021/12/19 02:16:39;;;;;;;;;;;7.10;99.90;;;;;;5103852;28;20328;-77
2021/12/19 02:19:05;;;;;;;;;;;7.10;99.90;;;;;;5095523;28;20443;-75
2021/12/19 02:21:31;;;;;;;;;;;7.10;99.90;;;;;;5083056;28;20391;-74
2021/12/19 02:23:58;;;;;;;;;;;7.10;99.90;;;;;;5069920;28;19928;-77
2021/12/19 02:26:23;;;;;;;;;;;7.10;99.90;;;;;;5081096;28;19949;-76
2021/12/19 02:28:49;;;;;;;;;;;7.10;99.90;;;;;;5111449;27;20631;-75
2021/12/19 02:31:15;;;;;;;;;;;7.10;99.90;;;;;;5112423;28;19934;-74
2021/12/19 02:33:44;;;;;;;;;;;7.10;99.90;;;;;;5079001;28;20381;-75
2021/12/19 02:49:16;;;;;;;;;;;7.00;99.90;;;;;;5114361;27;20449;-75
2021/12/19 02:51:42;;;;;;;;;;;7.00;99.90;;;;;;5134160;27;20050;-75
2021/12/19 02:54:08;;;;;;;;;;;7.10;99.90;;;;;;5082507;28;19924;-78
2021/12/19 02:56:33;;;;;;;;;;;7.00;99.90;;;;;;5100335;28;20334;-74
2021/12/19 02:58:59;;;;;;;;;;;7.10;99.90;;;;;;5058338;28;20025;-76
2021/12/19 03:01:26;;;;;;;;;;;7.00;99.90;;;;;;5098773;28;20340;-75
2021/12/19 03:03:51;;;;;;;;;;;7.00;99.90;;;;;;5105348;28;20041;-82
2021/12/19 03:06:17;;;;;;;;;;;7.00;99.90;;;;;;5085266;28;20009;-77
2021/12/19 03:08:46;;;;;;;;;;;6.90;99.90;;;;;;5110807;28;20344;-74
2021/12/19 03:19:41;;;;;;;;;;;6.90;99.90;;;;;;5004443;28;20391;-75
2021/12/19 03:22:06;;;;;;;;;;;6.90;99.90;;;;;;5068142;28;19934;-74
2021/12/19 03:24:32;;;;;;;;;;;6.90;99.90;;;;;;5078464;28;20281;-78
2021/12/19 03:26:58;;;;;;;;;;;6.90;99.90;;;;;;5067108;28;20296;-75
2021/12/19 03:29:23;;;;;;;;;;;6.90;99.90;;;;;;5109455;28;19927;-75
2021/12/19 03:31:49;;;;;;;;;;;7.00;99.90;;;;;;5101709;28;20041;-74
2021/12/19 03:34:14;;;;;;;;;;;6.90;99.90;;;;;;5103980;28;19945;-75
2021/12/19 03:36:40;;;;;;;;;;;6.90;99.90;;;;;;5078728;28;20013;-75
2021/12/19 03:39:14;;;;;;;;;;;6.80;99.90;;;;;;5102862;28;20069;-75
2021/12/19 03:41:41;;;;;;;;;;;6.80;99.90;;;;;;5096777;28;19931;-74
2021/12/19 03:44:06;;;;;;;;;;;6.70;99.90;;;;;;5077912;28;19934;-76
2021/12/19 03:46:32;;;;;;;;;;;6.70;99.90;;;;;;5101845;28;19928;-75
2021/12/19 03:48:57;;;;;;;;;;;6.70;99.90;;;;;;5072288;28;19931;-76
2021/12/19 03:51:24;;;;;;;;;;;6.60;99.90;;;;;;5116769;27;20446;-75
2021/12/19 03:53:49;;;;;;;;;;;6.60;99.90;;;;;;5116492;27;20040;-75
2021/12/19 03:56:15;;;;;;;;;;;6.50;99.90;;;;;;5084051;28;19924;-76
2021/12/19 03:58:41;;;;;;;;;;;6.50;99.90;;;;;;5100866;28;19924;-75
2021/12/19 04:01:08;;;;;;;;;;;6.60;99.90;;;;;;5091708;28;19999;-78
2021/12/19 04:03:34;;;;;;;;;;;6.60;99.90;;;;;;5116209;28;19935;-75
2021/12/19 04:06:00;;;;;;;;;;;6.60;99.90;;;;;;5108784;28;19959;-75
2021/12/19 04:08:26;;;;;;;;;;;6.60;99.90;;;;;;5115770;28;20483;-79
2021/12/19 04:10:52;;;;;;;;;;;6.60;99.90;;;;;;5087250;28;19934;-74
2021/12/19 04:13:18;;;;;;;;;;;6.60;99.90;;;;;;5090824;28;20043;-74
2021/12/19 04:15:44;;;;;;;;;;;6.60;99.90;;;;;;5085834;28;19931;-77
2021/12/19 04:18:10;;;;;;;;;;;6.70;99.90;;;;;;5088183;28;19928;-77
2021/12/19 04:20:36;;;;;;;;;;;6.60;99.90;;;;;;5102039;28;19931;-77
2021/12/19 04:23:02;;;;;;;;;;;6.70;99.90;;;;;;5105834;28;20376;-76
2021/12/19 04:25:28;;;;;;;;;;;6.70;99.90;;;;;;5104178;28;20422;-74
2021/12/19 04:27:53;;;;;;;;;;;6.70;99.90;;;;;;5087263;28;20018;-77
2021/12/19 04:30:21;;;;;;;;;;;6.70;99.90;;;;;;5102055;28;19931;-74
2021/12/19 04:32:56;;;;;;;;;;;6.70;99.90;;;;;;5091539;28;19931;-76
2021/12/19 04:35:22;;;;;;;;;;;6.70;99.90;;;;;;5067326;28;19928;-75
2021/12/19 05:03:40;;;;;;;;;;;6.70;99.90;;;;;;5104949;28;19931;-75
2021/12/19 05:16:33;;;;;;;;;;;6.70;99.90;;;;;;5115267;27;19935;-76
2021/12/19 05:19:05;;;;;;;;;;;6.70;99.90;;;;;;5085206;28;19928;-75
2021/12/19 05:21:33;;;;;;;;;;;6.70;99.90;;;;;;5089119;28;19935;-75
2021/12/19 05:26:25;;;;;;;;;;;6.80;99.90;;;;;;5108615;28;20018;-75
2021/12/19 05:28:52;;;;;;;;;;;6.70;99.90;;;;;;5113342;28;20030;-75
2021/12/19 05:31:21;;;;;;;;;;;6.70;99.90;;;;;;5111806;28;19923;-75
2021/12/19 05:33:47;;;;;;;;;;;6.80;99.90;;;;;;5104040;28;20404;-75
2021/12/19 05:44:10;;;;;;;;;;;6.70;99.90;;;;;;5111156;28;19931;-75
2021/12/19 05:47:08;;;;;;;;;;;6.80;99.90;;;;;;5100955;28;19978;-75
2021/12/19 05:49:34;;;;;;;;;;;6.80;99.90;;;;;;5107813;28;19924;-77
2021/12/19 05:52:00;;;;;;;;;;;6.80;99.90;;;;;;5092590;28;19935;-75
2021/12/19 05:54:26;;;;;;;;;;;6.80;99.90;;;;;;5093680;28;19936;-74
2021/12/19 05:56:52;;;;;;;;;;;6.80;99.90;;;;;;5093532;28;19981;-76
2021/12/19 05:59:17;;;;;;;;;;;6.80;99.90;;;;;;5100253;28;19947;-76
2021/12/19 06:01:43;;;;;;;;;;;6.80;99.90;;;;;;5111285;28;19930;-74
2021/12/19 06:04:09;;;;;;;;;;;6.90;99.90;;;;;;5088446;28;20369;-77
2021/12/19 06:06:34;;;;;;;;;;;6.80;99.90;;;;;;5088651;28;19927;-74
2021/12/19 06:09:00;;;;;;;;;;;6.80;99.90;;;;;;5112934;28;19932;-75
2021/12/19 06:11:25;;;;;;;;;;;6.80;99.90;;;;;;5077253;28;19972;-74
2021/12/19 06:13:51;;;;;;;;;;;6.80;99.90;;;;;;5104420;28;19967;-76
2021/12/19 06:16:17;;;;;;;;;;;6.80;99.90;;;;;;5104561;28;19986;-81
2021/12/19 06:18:42;;;;;;;;;;;6.90;99.90;;;;;;5077343;28;20018;-75
2021/12/19 06:21:09;;;;;;;;;;;6.80;99.90;;;;;;5085852;28;20404;-75
2021/12/19 06:23:34;;;;;;;;;;;6.80;99.90;;;;;;5104260;27;19924;-74
2021/12/19 06:26:00;;;;;;;;;;;6.80;99.90;;;;;;5081215;28;19939;-76
2021/12/19 06:28:26;;;;;;;;;;;6.80;99.90;;;;;;5125092;27;19970;-74
2021/12/19 06:30:52;;;;;;;;;;;6.80;99.90;;;;;;5106995;27;19928;-77
2021/12/19 06:33:18;;;;;;;;;;;6.80;99.90;;;;;;5090382;28;19931;-77
2021/12/19 06:35:43;;;;;;;;;;;6.80;99.90;;;;;;5109684;27;19928;-74
2021/12/19 06:38:09;;;;;;;;;;;6.90;99.90;;;;;;5109201;28;19959;-74
2021/12/19 06:40:35;;;;;;;;;;;6.80;99.90;;;;;;5083988;28;20356;-74
2021/12/19 06:43:01;;;;;;;;;;;6.90;99.90;;;;;;5106458;28;20459;-77
2021/12/19 06:45:26;;;;;;;;;;;6.80;99.90;;;;;;5122931;27;20015;-74
2021/12/19 06:47:52;;;;;;;;;;;6.90;99.90;;;;;;5110158;28;19934;-79
2021/12/19 06:50:19;;;;;;;;;;;6.80;99.90;;;;;;5075805;28;19924;-82
2021/12/19 06:52:45;;;;;;;;;;;6.80;99.90;;;;;;5093457;28;19977;-75
2021/12/19 06:55:12;;;;;;;;;;;6.80;99.90;;;;;;5084426;28;20018;-74
2021/12/19 06:57:37;;;;;;;;;;;6.80;99.90;;;;;;5113762;27;19923;-75
2021/12/19 07:00:08;;;;;;;;;;;6.80;99.90;;;;;;5104002;28;20008;-75
2021/12/19 07:02:34;;;;;;;;;;;6.80;99.90;;;;;;5081608;28;19923;-77
2021/12/19 07:04:59;;;;;;;;;;;6.80;99.90;;;;;;5103335;28;20381;-75
2021/12/19 07:07:25;;;;;;;;;;;6.80;99.90;;;;;;5094638;28;19928;-77
2021/12/19 07:09:50;;;;;;;;;;;6.90;99.90;;;;;;5092651;28;19973;-74
2021/12/19 07:12:17;;;;;;;;;;;6.80;99.90;;;;;;5115055;27;19932;-75
2021/12/19 07:14:43;;;;;;;;;;;6.80;99.90;;;;;;5067576;28;20336;-74
2021/12/19 07:17:10;;;;;;;;;;;6.90;99.90;;;;;;5091959;28;20304;-74
2021/12/19 07:19:35;;;;;;;;;;;6.90;99.90;;;;;;5089628;28;19935;-75
2021/12/19 07:22:01;;;;;;;;;;;6.90;99.90;;;;;;5092863;28;19924;-75
2021/12/19 07:24:26;;;;;;;;;;;6.90;99.90;;;;;;5096500;28;19935;-75
2021/12/19 07:26:52;;;;;;;;;;;6.90;99.90;;;;;;5093324;28;19927;-76
2021/12/19 07:29:17;;;;;;;;;;;6.80;99.90;;;;;;5092529;28;19977;-75
2021/12/19 07:31:44;;;;;;;;;;;6.80;99.90;;;;;;5075802;28;19924;-75
2021/12/19 07:34:09;;;;;;;;;;;6.90;99.90;;;;;;5089536;28;19931;-75
2021/12/19 07:36:48;;;;;;;;;;;6.90;99.90;;;;;;5075655;28;19928;-76
2021/12/19 07:39:37;;;;;;;;;;;6.80;99.90;;;;;;5086421;28;19935;-75
2021/12/19 07:42:06;;;;;;;;;;;6.90;99.90;;;;;;5114686;27;19927;-75
2021/12/19 07:44:32;;;;;;;;;;;6.80;99.90;;;;;;5092605;28;19928;-77
2021/12/19 07:46:58;;;;;;;;;;;6.80;99.90;;;;;;5066124;28;19931;-74
2021/12/19 07:49:24;;;;;;;;;;;6.80;99.90;;;;;;5085032;28;19928;-81
2021/12/19 07:51:49;;;;;;;;;;;6.80;99.90;;;;;;5110084;28;20377;-75
2021/12/19 07:54:15;;;;;;;;;;;6.80;99.90;;;;;;5096629;28;19943;-74
2021/12/19 07:56:40;;;;;;;;;;;6.80;99.90;;;;;;5110762;27;19924;-74
2021/12/19 07:59:07;;;;;;;;;;;6.90;99.90;;;;;;5080985;28;20356;-74
2021/12/19 08:01:32;;;;;;;;;;;6.90;99.90;;;;;;5089771;28;19924;-74
2021/12/19 08:03:58;;;;;;;;;;;6.90;99.90;;;;;;5092793;28;19927;-74
2021/12/19 08:06:24;;;;;;;;;;;6.90;99.90;;;;;;5110307;28;19934;-78
2021/12/19 08:08:53;;;;;;;;;;;6.90;99.90;;;;;;5088919;28;19970;-75
2021/12/19 08:14:03;;;;;;;;;;;6.90;99.90;;;;;;5089789;28;20774;-74
2021/12/19 08:16:29;;;;;;;;;;;6.90;99.90;;;;;;5111546;28;20045;-82
2021/12/19 08:18:54;;;;;;;;;;;6.90;99.90;;;;;;5093081;28;20291;-76
2021/12/19 08:21:20;;;;;;;;;;;7.00;99.90;;;;;;5093160;28;19924;-74
2021/12/19 08:23:46;;;;;;;;;;;7.00;99.90;;;;;;5110448;28;20386;-74
2021/12/19 08:26:12;;;;;;;;;;;6.90;99.90;;;;;;5113506;28;19992;-77
2021/12/19 08:28:37;;;;;;;;;;;7.00;99.90;;;;;;5111109;28;19932;-74
2021/12/19 08:31:03;;;;;;;;;;;7.00;99.90;;;;;;5079185;28;20476;-75
2021/12/19 08:33:29;;;;;;;;;;;7.00;99.90;;;;;;5097762;28;19973;-78
2021/12/19 08:35:54;;;;;;;;;;;7.00;99.90;;;;;;5119505;27;20463;-73
2021/12/19 08:38:20;;;;;;;;;;;7.00;99.90;;;;;;5094496;28;19932;-76
2021/12/19 08:40:47;;;;;;;;;;;7.00;99.90;;;;;;5095682;28;20376;-73
2021/12/19 08:43:13;;;;;;;;;;;7.00;99.90;;;;;;5094209;28;20006;-74
2021/12/19 08:45:39;;;;;;;;;;;7.00;99.90;;;;;;5128130;27;20011;-76
2021/12/19 08:48:05;;;;;;;;;;;7.00;99.90;;;;;;5115490;28;20006;-80
2021/12/19 08:50:31;;;;;;;;;;;7.00;99.90;;;;;;5079739;28;20358;-83
2021/12/19 08:52:56;;;;;;;;;;;7.00;99.90;;;;;;5097657;28;19962;-76
2021/12/19 08:55:22;;;;;;;;;;;7.00;99.90;;;;;;5098044;28;19935;-77
2021/12/19 08:57:48;;;;;;;;;;;7.00;99.90;;;;;;5097916;28;19957;-76
2021/12/19 09:00:14;;;;;;;;;;;7.10;99.90;;;;;;5098080;28;20205;-75
2021/12/19 09:02:42;;;;;;;;;;;7.10;99.90;;;;;;5115737;28;20022;-76
2021/12/19 09:05:08;;;;;;;;;;;7.10;99.90;;;;;;5097895;28;20002;-77
2021/12/19 09:07:34;;;;;;;;;;;7.10;99.90;;;;;;5097703;28;20351;-84
2021/12/19 09:09:59;;;;;;;;;;;7.10;99.90;;;;;;5114822;28;19930;-77
2021/12/19 09:12:27;;;;;;;;;;;7.10;99.90;;;;;;5114906;28;19931;-76
2021/12/19 09:14:52;;;;;;;;;;;7.10;99.90;;;;;;5097698;28;20315;-76
2021/12/19 09:17:18;;;;;;;;;;;7.20;99.90;;;;;;5114868;28;19928;-77
2021/12/19 09:19:43;;;;;;;;;;;7.20;99.90;;;;;;5114557;28;19927;-76
2021/12/19 09:22:09;;;;;;;;;;;7.20;99.90;;;;;;5098082;28;19924;-77
2021/12/19 09:24:35;;;;;;;;;;;7.20;99.90;;;;;;5114940;28;20019;-83
2021/12/19 09:27:01;;;;;;;;;;;7.30;99.90;;;;;;5114884;28;19927;-76
2021/12/19 09:29:28;;;;;;;;;;;7.20;99.90;;;;;;5114553;28;19924;-76
2021/12/19 09:31:54;;;;;;;;;;;7.20;99.90;;;;;;5114122;28;19924;-78
2021/12/19 09:34:20;;;;;;;;;;;7.30;99.90;;;;;;5097585;28;19931;-78
2021/12/19 09:36:45;;;;;;;;;;;7.30;99.90;;;;;;5113987;28;19953;-77
2021/12/19 09:39:11;;;;;;;;;;;7.30;99.90;;;;;;5114638;28;19975;-76
2021/12/19 09:41:43;;;;;;;;;;;7.30;99.90;;;;;;5114494;28;20288;-83
2021/12/19 09:44:11;;;;;;;;;;;7.30;99.90;;;;;;5097379;28;20018;-79
2021/12/19 09:46:38;;;;;;;;;;;7.30;99.90;;;;;;5080602;28;20219;-76
2021/12/19 09:49:05;;;;;;;;;;;7.30;99.90;;;;;;5114392;28;19976;-78
2021/12/19 09:51:31;;;;;;;;;;;7.40;99.90;;;;;;5079082;28;19923;-77
2021/12/19 09:53:56;;;;;;;;;;;7.40;99.90;;;;;;5096786;28;20258;-77
2021/12/19 09:56:22;;;;;;;;;;;7.40;99.90;;;;;;5096842;28;19928;-79
2021/12/19 09:58:48;;;;;;;;;;;7.40;99.90;;;;;;5095949;28;20410;-78
2021/12/19 10:01:14;;;;;;;;;;;7.40;99.90;;;;;;5096396;28;20347;-80
2021/12/19 10:03:39;;;;;;;;;;;7.40;99.90;;;;;;5079063;28;19928;-87
2021/12/19 10:06:14;;;;;;;;;;;7.40;99.90;;;;;;5079090;28;19927;-78
2021/12/19 10:08:40;;;;;;;;;;;7.40;99.90;;;;;;5095201;28;20444;-87
2021/12/19 10:11:29;;;;;;;;;;;7.40;99.90;;;;;;5094973;28;20030;-77
2021/12/19 10:13:55;;;;;;;;;;;7.50;99.90;;;;;;5095306;28;19924;-77
2021/12/19 10:16:24;;;;;;;;;;;7.40;99.90;;;;;;5095424;28;19924;-77
2021/12/19 10:18:53;;;;;;;;;;;7.50;99.90;;;;;;5095579;28;19924;-77
2021/12/19 10:21:19;;;;;;;;;;;7.50;99.90;;;;;;5096209;28;20025;-78
2021/12/19 10:23:45;;;;;;;;;;;7.50;99.90;;;;;;5079482;28;19971;-78
2021/12/19 10:26:11;;;;;;;;;;;7.50;99.90;;;;;;5096356;28;19975;-77
2021/12/19 10:28:57;;;;;;;;;;;7.50;99.90;;;;;;5096171;28;20644;-79
2021/12/19 10:31:25;;;;;;;;;;;7.50;99.90;;;;;;5095270;28;19970;-78
2021/12/19 10:33:51;;;;;;;;;;;7.50;99.90;;;;;;5095831;28;19927;-77
2021/12/19 10:36:18;;;;;;;;;;;7.50;99.90;;;;;;5096408;28;20266;-77
2021/12/19 10:38:44;;;;;;;;;;;7.50;99.90;;;;;;5096048;28;20018;-86
2021/12/19 10:41:13;;;;;;;;;;;7.40;99.90;;;;;;5096204;28;20006;-78
2021/12/19 10:44:03;;;;;;;;;;;7.60;99.90;;;;;;5114086;28;19927;-77
2021/12/19 10:46:31;;;;;;;;;;;7.50;99.90;;;;;;5096268;28;19924;-78
2021/12/19 10:48:58;;;;;;;;;;;7.60;99.90;;;;;;5129768;27;19924;-80
2021/12/19 10:51:24;;;;;;;;;;;7.60;99.90;;;;;;5078607;28;19924;-80
2021/12/19 10:53:54;;;;;;;;;;;7.60;99.90;;;;;;5095743;28;19924;-78
2021/12/19 10:56:29;;;;;;;;;;;7.60;99.90;;;;;;5078652;28;20121;-78
2021/12/19 10:59:02;;;;;;;;;;;7.60;99.90;;;;;;5095299;28;19928;-77
2021/12/19 11:01:29;;;;;;;;;;;7.60;99.90;;;;;;5114452;28;19974;-79
2021/12/19 11:04:01;;;;;;;;;;;7.60;99.90;;;;;;5079274;28;19935;-77
2021/12/19 11:06:26;;;;;;;;;;;7.60;99.90;;;;;;5129885;27;20322;-78
2021/12/19 11:08:53;;;;;;;;;;;7.70;99.90;;;;;;5095814;28;19931;-77
2021/12/19 11:11:39;;;;;;;;;;;7.60;99.90;;;;;;5095633;28;19934;-78
2021/12/19 11:14:05;;;;;;;;;;;7.60;99.90;;;;;;5129270;27;19979;-78
2021/12/19 11:16:31;;;;;;;;;;;7.60;99.90;;;;;;5095240;28;19924;-78
2021/12/19 11:18:56;;;;;;;;;;;7.60;99.90;;;;;;5094961;28;19930;-78
2021/12/19 11:21:22;;;;;;;;;;;7.60;99.90;;;;;;5095128;28;19930;-77
2021/12/19 11:23:48;;;;;;;;;;;7.60;99.90;;;;;;5095372;28;19924;-84
2021/12/19 11:26:16;;;;;;;;;;;7.60;99.90;;;;;;5095487;28;20014;-78
2021/12/19 11:28:42;;;;;;;;;;;7.60;99.90;;;;;;5095482;28;20605;-78
2021/12/19 11:31:07;;;;;;;;;;;7.60;99.90;;;;;;5094895;28;20019;-81
2021/12/19 11:33:45;;;;;;;;;;;7.60;99.90;;;;;;5095378;28;20647;-78
2021/12/19 11:36:11;;;;;;;;;;;7.60;99.90;;;;;;5095028;28;19928;-78
2021/12/19 11:38:37;;;;;;;;;;;7.70;99.90;;;;;;5095224;28;19924;-78
2021/12/19 11:41:07;;;;;;;;;;;7.60;99.90;;;;;;5112577;28;19949;-76
2021/12/19 11:43:40;;;;;;;;;;;7.60;99.90;;;;;;5078158;28;19931;-78
2021/12/19 11:46:24;;;;;;;;;;;7.60;99.90;;;;;;5094680;28;19970;-78
2021/12/19 11:49:20;;;;;;;;;;;7.60;99.90;;;;;;5080819;28;19927;-80
2021/12/19 11:51:47;;;;;;;;;;;7.60;99.90;;;;;;5110148;28;19971;-78
2021/12/19 11:54:17;;;;;;;;;;;7.60;99.90;;;;;;5094833;28;19963;-79
2021/12/19 11:57:02;;;;;;;;;;;7.60;99.90;;;;;;5129281;27;19923;-78
2021/12/19 11:59:27;;;;;;;;;;;7.70;99.90;;;;;;5094516;28;19930;-79
2021/12/19 12:01:53;;;;;;;;;;;7.70;99.90;;;;;;5128675;27;19924;-87
2021/12/19 12:04:20;;;;;;;;;;;7.70;99.90;;;;;;5128475;27;20369;-78
2021/12/19 12:06:56;;;;;;;;;;;7.70;99.90;;;;;;5095105;28;19923;-77
2021/12/19 12:09:24;;;;;;;;;;;7.70;99.90;;;;;;5094582;28;20383;-78
2021/12/19 12:11:59;;;;;;;;;;;7.70;99.90;;;;;;5093608;28;20455;-78
2021/12/19 12:14:31;;;;;;;;;;;7.70;99.90;;;;;;5093702;28;19931;-80
2021/12/19 12:16:58;;;;;;;;;;;7.70;99.90;;;;;;5094255;28;19924;-86
2021/12/19 12:19:38;;;;;;;;;;;7.70;99.90;;;;;;5094817;28;19924;-79
2021/12/19 12:22:35;;;;;;;;;;;7.80;99.90;;;;;;5094572;28;19924;-78
2021/12/19 12:25:03;;;;;;;;;;;7.80;99.90;;;;;;5069502;28;19983;-78
2021/12/19 12:27:35;;;;;;;;;;;7.80;99.90;;;;;;5094540;28;20022;-78
2021/12/19 12:30:03;;;;;;;;;;;7.80;99.90;;;;;;5094538;28;20367;-78
2021/12/19 12:32:29;;;;;;;;;;;7.80;99.90;;;;;;5094919;28;19924;-78
2021/12/19 12:34:54;;;;;;;;;;;7.80;99.90;;;;;;5094758;28;19935;-78
2021/12/19 12:37:20;;;;;;;;;;;7.80;99.90;;;;;;5094079;28;19924;-78
2021/12/19 12:39:46;;;;;;;;;;;7.80;99.90;;;;;;5094655;28;19953;-78
2021/12/19 12:42:12;;;;;;;;;;;7.80;99.90;;;;;;5094077;28;19976;-78
2021/12/19 12:44:37;;;;;;;;;;;7.90;99.90;;;;;;5094618;28;19927;-77
2021/12/19 12:47:05;;;;;;;;;;;7.80;99.90;;;;;;5077453;28;19994;-77
2021/12/19 12:49:34;;;;;;;;;;;7.80;99.90;;;;;;5112607;28;19927;-77
2021/12/19 12:52:06;;;;;;;;;;;7.80;99.90;;;;;;5093629;28;20292;-82
2021/12/19 12:54:35;;;;;;;;;;;7.80;99.90;;;;;;5094482;28;19932;-81
2021/12/19 12:57:10;;;;;;;;;;;7.80;99.90;;;;;;5093839;28;20277;-82
2021/12/19 12:59:39;;;;;;;;;;;7.80;99.90;;;;;;5094671;28;20008;-78
2021/12/19 13:04:39;;;;;;;;;;;7.80;99.90;;;;;;5094007;28;20399;-78
2021/12/19 13:07:09;;;;;;;;;;;7.80;99.90;;;;;;5093950;28;20394;-78
2021/12/19 13:09:34;;;;;;;;;;;7.80;99.90;;;;;;5128665;28;19950;-77
2021/12/19 13:12:06;;;;;;;;;;;7.80;99.90;;;;;;5079305;28;19927;-87
2021/12/19 13:14:33;;;;;;;;;;;7.90;99.90;;;;;;5097899;28;19927;-77
2021/12/19 13:17:02;;;;;;;;;;;7.90;99.90;;;;;;5098191;28;20014;-77
2021/12/19 13:19:38;;;;;;;;;;;7.80;99.90;;;;;;5132106;27;20360;-78
2021/12/19 13:22:09;;;;;;;;;;;7.80;99.90;;;;;;5114784;28;19931;-83
2021/12/19 13:24:35;;;;;;;;;;;7.80;99.90;;;;;;5116015;28;19934;-78
2021/12/19 13:27:05;;;;;;;;;;;7.80;99.90;;;;;;5098194;28;19924;-77
2021/12/19 13:29:31;;;;;;;;;;;7.80;99.90;;;;;;5098238;28;19973;-77
2021/12/19 13:32:15;;;;;;;;;;;7.80;99.90;;;;;;5097797;28;20496;-77
2021/12/19 13:34:41;;;;;;;;;;;7.70;99.90;;;;;;5115598;28;19973;-77
2021/12/19 13:37:06;;;;;;;;;;;7.80;99.90;;;;;;5131587;27;20368;-78
2021/12/19 13:39:33;;;;;;;;;;;7.80;99.90;;;;;;5131745;27;20015;-77
2021/12/19 13:42:06;;;;;;;;;;;7.80;99.90;;;;;;5114413;28;19977;-77
2021/12/19 13:44:32;;;;;;;;;;;7.80;99.90;;;;;;5080280;28;19928;-78
2021/12/19 13:46:58;;;;;;;;;;;7.80;99.90;;;;;;5114409;28;19924;-78
2021/12/19 13:49:23;;;;;;;;;;;7.80;99.90;;;;;;5097274;28;19924;-78
2021/12/19 13:51:49;;;;;;;;;;;7.80;99.90;;;;;;5097134;28;19976;-79
2021/12/19 13:54:14;;;;;;;;;;;7.80;99.90;;;;;;5097201;28;19927;-79
2021/12/19 13:56:40;;;;;;;;;;;7.90;99.90;;;;;;5080452;28;19924;-78
2021/12/19 13:59:16;;;;;;;;;;;7.90;99.90;;;;;;5063406;28;20018;-92
2021/12/19 14:01:41;;;;;;;;;;;7.90;99.90;;;;;;5096765;28;20304;-78
2021/12/19 14:04:20;;;;;;;;;;;7.90;99.90;;;;;;5078651;28;19924;-88
2021/12/19 14:06:48;;;;;;;;;;;7.90;99.90;;;;;;5097287;28;19978;-77
2021/12/19 14:09:18;;;;;;;;;;;7.90;99.90;;;;;;5096818;28;20367;-79
2021/12/19 14:11:45;;;;;;;;;;;7.90;99.90;;;;;;5096887;28;19924;-78
2021/12/19 14:14:23;;;;;;;;;;;7.90;99.90;;;;;;5079706;28;19927;-78
2021/12/19 14:16:49;;;;;;;;;;;8.00;99.90;;;;;;5080210;28;19924;-77
2021/12/19 14:19:16;;;;;;;;;;;7.90;99.90;;;;;;5096683;28;20030;-78
2021/12/19 14:21:42;;;;;;;;;;;8.00;99.90;;;;;;5097112;28;20353;-78
2021/12/19 14:24:17;;;;;;;;;;;7.90;99.90;;;;;;5096404;28;20018;-93
2021/12/19 14:26:50;;;;;;;;;;;7.90;99.90;;;;;;5130925;27;20365;-78
2021/12/19 14:29:24;;;;;;;;;;;7.90;99.90;;;;;;5079838;28;19930;-78
2021/12/19 14:31:51;;;;;;;;;;;7.90;99.90;;;;;;5096714;28;19931;-78
2021/12/19 14:34:24;;;;;;;;;;;7.90;99.90;;;;;;5130567;27;20329;-77
2021/12/19 14:36:50;;;;;;;;;;;7.90;99.90;;;;;;5114772;28;19930;-77
2021/12/19 14:39:20;;;;;;;;;;;7.80;99.90;;;;;;5096430;28;19923;-77
2021/12/19 14:41:45;;;;;;;;;;;7.80;99.90;;;;;;5113558;28;20278;-78
2021/12/19 14:44:19;;;;;;;;;;;7.80;99.90;;;;;;5094793;28;19935;-87
2021/12/19 14:46:44;;;;;;;;;;;7.80;99.90;;;;;;5078963;28;20284;-78
2021/12/19 14:49:10;;;;;;;;;;;7.70;99.90;;;;;;5112849;28;19924;-78
2021/12/19 14:51:36;;;;;;;;;;;7.70;99.90;;;;;;5095680;28;20045;-77
2021/12/19 14:54:02;;;;;;;;;;;7.70;99.90;;;;;;5113432;28;20395;-78
2021/12/19 14:56:29;;;;;;;;;;;7.60;99.90;;;;;;5095714;28;19935;-78
2021/12/19 14:58:56;;;;;;;;;;;7.60;99.90;;;;;;5113846;28;19939;-78
2021/12/19 15:01:23;;;;;;;;;;;7.50;99.90;;;;;;5095404;28;19971;-78
2021/12/19 15:03:55;;;;;;;;;;;7.50;99.90;;;;;;5095944;28;19923;-78
2021/12/19 15:06:22;;;;;;;;;;;7.50;99.90;;;;;;5078696;28;19923;-77
2021/12/19 15:08:48;;;;;;;;;;;7.50;99.90;;;;;;5113973;28;20330;-78
2021/12/19 15:11:14;;;;;;;;;;;7.50;99.90;;;;;;5112711;27;19924;-79
2021/12/19 15:13:40;;;;;;;;;;;7.50;99.90;;;;;;5078895;28;20003;-77
2021/12/19 15:16:05;;;;;;;;;;;7.50;99.90;;;;;;5113213;28;20373;-78
2021/12/19 15:18:33;;;;;;;;;;;7.50;99.90;;;;;;5113479;28;20364;-78
2021/12/19 15:20:59;;;;;;;;;;;7.40;99.90;;;;;;5095839;28;20333;-78
2021/12/19 15:23:25;;;;;;;;;;;7.40;99.90;;;;;;5095113;28;20010;-78
2021/12/19 15:25:51;;;;;;;;;;;7.40;99.90;;;;;;5095394;28;19924;-78
2021/12/19 15:28:18;;;;;;;;;;;7.40;99.90;;;;;;5113439;28;19924;-86
2021/12/19 15:30:48;;;;;;;;;;;7.40;99.90;;;;;;5095162;28;19970;-80
2021/12/19 15:33:15;;;;;;;;;;;7.30;99.90;;;;;;5113375;28;19930;-77
2021/12/19 15:35:41;;;;;;;;;;;7.40;99.90;;;;;;5094719;28;19924;-78
2021/12/19 15:38:07;;;;;;;;;;;7.40;99.90;;;;;;5113527;28;20313;-77
2021/12/19 15:40:32;;;;;;;;;;;7.30;99.90;;;;;;5111951;28;19924;-78
2021/12/19 15:42:58;;;;;;;;;;;7.30;99.90;;;;;;5095489;28;20368;-78
2021/12/19 15:45:25;;;;;;;;;;;7.40;99.90;;;;;;5078141;28;19939;-78
2021/12/19 15:47:50;;;;;;;;;;;7.40;99.90;;;;;;5094988;28;19924;-77
2021/12/19 15:50:16;;;;;;;;;;;7.30;99.90;;;;;;5113002;28;19968;-77
2021/12/19 15:52:42;;;;;;;;;;;7.30;99.90;;;;;;5093970;28;19931;-77
2021/12/19 15:55:08;;;;;;;;;;;7.30;99.90;;;;;;5078496;28;19935;-80